ITY672 LIRF-SBGL
Flight info
| Callsign | ITY672 |
|---|---|
| Flight time | N/A |
| Altitude | 29000 |
| Route | ESINO DCT GITRI DCT GOKMI DCT SUPUX DCT ETOIL DCT REQIN UG26 ZEM/N0485F280 UG26 ALR UM986 BAY/N0495F320 UM986 BRENA UA854 ARDAR UR975 ANITI UA302 TURUP DCT 11N020W 03N025W/N0493F340 DCT KODOS UL206 DAGTA/N0486F360 UL206 VRI UN401 MOLSU |
| Aircraft | A339/H-SADE1E2E3GHIJ3J5M1P2RWXY/LB2D1 |
Departure
| Time | 2026-05-06 21:04 |
|---|---|
| Airport | Rome–Fiumicino Leonardo da Vinci International Airport (LIRF) |
Arrival
| Time | N/A |
|---|---|
| Airport | Rio Galeão – Tom Jobim International Airport (SBGL) |
| Time | Latitude | Longitude | Altitude | Speed | Heading |
|---|---|---|---|---|---|
| 2026-05-06 20:21 | 41.79689 | 12.24859 | 25 ft | 0 kts | 251° |
| 2026-05-06 20:48 | 41.79693 | 12.24876 | 26 ft | 2 kts | 243° |
| 2026-05-06 20:48 | 41.79696 | 12.24888 | 26 ft | 2 kts | 228° |
| 2026-05-06 20:48 | 41.79706 | 12.24893 | 27 ft | 2 kts | 189° |
| 2026-05-06 20:49 | 41.79717 | 12.24894 | 27 ft | 1 kts | 233° |
| 2026-05-06 20:49 | 41.79723 | 12.24905 | 26 ft | 1 kts | 244° |
| 2026-05-06 20:49 | 41.79728 | 12.24917 | 27 ft | 1 kts | 244° |
| 2026-05-06 20:49 | 41.79732 | 12.24929 | 27 ft | 2 kts | 244° |
| 2026-05-06 20:50 | 41.79738 | 12.24944 | 28 ft | 2 kts | 244° |
| 2026-05-06 20:50 | 41.79743 | 12.24960 | 28 ft | 2 kts | 244° |
| 2026-05-06 20:50 | 41.79749 | 12.24977 | 28 ft | 2 kts | 231° |
| 2026-05-06 20:50 | 41.79757 | 12.24991 | 28 ft | 2 kts | 214° |
| 2026-05-06 20:51 | 41.79767 | 12.25001 | 28 ft | 0 kts | 205° |
| 2026-05-06 20:55 | 41.79765 | 12.24998 | 22 ft | 2 kts | 208° |
| 2026-05-06 20:55 | 41.79753 | 12.24954 | 27 ft | 9 kts | 264° |
| 2026-05-06 20:56 | 41.79803 | 12.24906 | 23 ft | 10 kts | 340° |
| 2026-05-06 20:56 | 41.79869 | 12.24877 | 22 ft | 10 kts | 341° |
| 2026-05-06 20:56 | 41.79939 | 12.24842 | 20 ft | 11 kts | 339° |
| 2026-05-06 20:56 | 41.80011 | 12.24805 | 20 ft | 11 kts | 339° |
| 2026-05-06 20:57 | 41.80088 | 12.24773 | 20 ft | 12 kts | 350° |
| 2026-05-06 20:57 | 41.80172 | 12.24791 | 22 ft | 11 kts | 29° |
| 2026-05-06 20:57 | 41.80201 | 12.24868 | 24 ft | 7 kts | 75° |
| 2026-05-06 20:57 | 41.80206 | 12.24923 | 23 ft | 5 kts | 86° |
| 2026-05-06 20:58 | 41.80205 | 12.24979 | 23 ft | 7 kts | 90° |
| 2026-05-06 20:58 | 41.80206 | 12.25055 | 23 ft | 10 kts | 86° |
| 2026-05-06 20:58 | 41.80232 | 12.25170 | 26 ft | 18 kts | 69° |
| 2026-05-06 20:58 | 41.80279 | 12.25338 | 25 ft | 20 kts | 69° |
| 2026-05-06 20:59 | 41.80330 | 12.25524 | 23 ft | 23 kts | 70° |
| 2026-05-06 20:59 | 41.80385 | 12.25725 | 20 ft | 24 kts | 69° |
| 2026-05-06 20:59 | 41.80446 | 12.25943 | 19 ft | 25 kts | 70° |
| 2026-05-06 20:59 | 41.80507 | 12.26166 | 18 ft | 26 kts | 69° |
| 2026-05-06 21:00 | 41.80569 | 12.26392 | 21 ft | 25 kts | 70° |
| 2026-05-06 21:00 | 41.80631 | 12.26614 | 19 ft | 25 kts | 70° |
| 2026-05-06 21:00 | 41.80690 | 12.26827 | 16 ft | 24 kts | 69° |
| 2026-05-06 21:00 | 41.80708 | 12.26892 | 14 ft | 5 kts | 69° |
| 2026-05-06 21:01 | 41.80725 | 12.26953 | 15 ft | 8 kts | 69° |
| 2026-05-06 21:01 | 41.80742 | 12.27015 | 14 ft | 7 kts | 69° |
| 2026-05-06 21:01 | 41.80775 | 12.27048 | 15 ft | 7 kts | 19° |
| 2026-05-06 21:01 | 41.80838 | 12.27026 | 14 ft | 11 kts | 337° |
| 2026-05-06 21:02 | 41.80909 | 12.26990 | 15 ft | 11 kts | 340° |
| 2026-05-06 21:02 | 41.80960 | 12.26933 | 15 ft | 7 kts | 280° |
| 2026-05-06 21:02 | 41.80952 | 12.26911 | 15 ft | 0 kts | 250° |
| 2026-05-06 21:02 | 41.80952 | 12.26910 | 15 ft | 2 kts | 250° |
| 2026-05-06 21:03 | 41.80871 | 12.26615 | 16 ft | 69 kts | 250° |
| 2026-05-06 21:03 | 41.80623 | 12.25730 | 19 ft | 132 kts | 250° |
| 2026-05-06 21:03 | 41.80239 | 12.24344 | 20 ft | 182 kts | 249° |
| 2026-05-06 21:03 | 41.79772 | 12.22703 | 468 ft | 191 kts | 246° |
| 2026-05-06 21:04 | 41.79333 | 12.20972 | 1018 ft | 199 kts | 255° |
| 2026-05-06 21:04 | 41.79271 | 12.19147 | 1723 ft | 199 kts | 266° |
| 2026-05-06 21:04 | 41.79263 | 12.17204 | 1936 ft | 218 kts | 264° |
| 2026-05-06 21:04 | 41.79083 | 12.15197 | 2341 ft | 219 kts | 244° |
| 2026-05-06 21:05 | 41.78213 | 12.13536 | 2797 ft | 219 kts | 219° |
| 2026-05-06 21:05 | 41.77110 | 12.12093 | 3305 ft | 230 kts | 223° |
| 2026-05-06 21:05 | 41.75924 | 12.10511 | 3494 ft | 252 kts | 222° |
| 2026-05-06 21:05 | 41.74601 | 12.08847 | 3801 ft | 265 kts | 220° |
| 2026-05-06 21:06 | 41.73240 | 12.07246 | 4614 ft | 257 kts | 219° |
| 2026-05-06 21:06 | 41.71867 | 12.05734 | 5322 ft | 254 kts | 217° |
| 2026-05-06 21:06 | 41.70302 | 12.04618 | 5641 ft | 266 kts | 195° |
| 2026-05-06 21:06 | 41.68467 | 12.04321 | 6198 ft | 267 kts | 179° |
| 2026-05-06 21:07 | 41.66641 | 12.04357 | 6996 ft | 258 kts | 181° |
| 2026-05-06 21:07 | 41.64865 | 12.04301 | 7729 ft | 252 kts | 182° |
| 2026-05-06 21:07 | 41.63073 | 12.04148 | 7970 ft | 268 kts | 189° |
| 2026-05-06 21:07 | 41.61301 | 12.03365 | 8514 ft | 268 kts | 207° |
| 2026-05-06 21:08 | 41.59787 | 12.01906 | 9162 ft | 269 kts | 218° |
| 2026-05-06 21:08 | 41.58343 | 12.00323 | 9607 ft | 274 kts | 217° |
| 2026-05-06 21:08 | 41.56848 | 11.98703 | 10084 ft | 279 kts | 217° |
| 2026-05-06 21:08 | 41.55323 | 11.97061 | 10524 ft | 283 kts | 217° |
| 2026-05-06 21:09 | 41.53756 | 11.95403 | 10840 ft | 294 kts | 216° |
| 2026-05-06 21:09 | 41.52085 | 11.93703 | 10997 ft | 309 kts | 215° |
| 2026-05-06 21:09 | 41.50333 | 11.91921 | 11153 ft | 325 kts | 216° |
| 2026-05-06 21:09 | 41.48516 | 11.90041 | 11514 ft | 332 kts | 217° |
| 2026-05-06 21:10 | 41.46713 | 11.88154 | 12023 ft | 334 kts | 217° |
| 2026-05-06 21:10 | 41.44888 | 11.86232 | 12576 ft | 336 kts | 217° |
| 2026-05-06 21:10 | 41.43050 | 11.84294 | 13102 ft | 338 kts | 217° |
| 2026-05-06 21:10 | 41.41199 | 11.82345 | 13595 ft | 341 kts | 217° |
| 2026-05-06 21:11 | 41.39427 | 11.80227 | 14036 ft | 345 kts | 227° |
| 2026-05-06 21:11 | 41.38040 | 11.77608 | 14505 ft | 348 kts | 240° |
| 2026-05-06 21:11 | 41.37109 | 11.74628 | 15038 ft | 349 kts | 250° |
| 2026-05-06 21:11 | 41.36318 | 11.71560 | 15455 ft | 353 kts | 249° |
| 2026-05-06 21:12 | 41.35497 | 11.68480 | 15925 ft | 354 kts | 249° |
| 2026-05-06 21:12 | 41.34668 | 11.65421 | 16353 ft | 357 kts | 249° |
| 2026-05-06 21:12 | 41.33820 | 11.62305 | 16870 ft | 358 kts | 249° |
| 2026-05-06 21:12 | 41.32969 | 11.59188 | 17370 ft | 359 kts | 249° |
| 2026-05-06 21:13 | 41.32113 | 11.56055 | 17774 ft | 361 kts | 249° |
| 2026-05-06 21:13 | 41.31253 | 11.52909 | 18169 ft | 363 kts | 249° |
| 2026-05-06 21:13 | 41.30399 | 11.49785 | 18542 ft | 364 kts | 249° |
| 2026-05-06 21:13 | 41.29531 | 11.46613 | 18889 ft | 366 kts | 249° |
| 2026-05-06 21:14 | 41.28657 | 11.43427 | 19254 ft | 367 kts | 249° |
| 2026-05-06 21:14 | 41.27781 | 11.40235 | 19604 ft | 368 kts | 249° |
| 2026-05-06 21:14 | 41.26898 | 11.37024 | 19962 ft | 370 kts | 249° |
| 2026-05-06 21:14 | 41.26015 | 11.33814 | 20320 ft | 371 kts | 249° |
| 2026-05-06 21:15 | 41.25125 | 11.30585 | 20695 ft | 372 kts | 249° |
| 2026-05-06 21:15 | 41.24239 | 11.27374 | 21240 ft | 369 kts | 249° |
| 2026-05-06 21:15 | 41.23364 | 11.24207 | 21573 ft | 371 kts | 249° |
| 2026-05-06 21:15 | 41.22471 | 11.20982 | 21918 ft | 372 kts | 249° |
| 2026-05-06 21:16 | 41.21577 | 11.17757 | 22380 ft | 371 kts | 249° |
| 2026-05-06 21:16 | 41.20681 | 11.14527 | 22724 ft | 373 kts | 249° |
| 2026-05-06 21:16 | 41.19780 | 11.11285 | 23089 ft | 375 kts | 249° |
| 2026-05-06 21:16 | 41.18875 | 11.08027 | 23458 ft | 376 kts | 249° |
| 2026-05-06 21:17 | 41.17977 | 11.04802 | 23778 ft | 378 kts | 249° |
| 2026-05-06 21:17 | 41.17064 | 11.01526 | 24083 ft | 379 kts | 249° |
| 2026-05-06 21:17 | 41.16146 | 10.98237 | 24404 ft | 380 kts | 249° |
| 2026-05-06 21:17 | 41.15223 | 10.94935 | 24717 ft | 382 kts | 249° |
| 2026-05-06 21:18 | 41.14298 | 10.91629 | 25027 ft | 383 kts | 249° |
| 2026-05-06 21:18 | 41.13368 | 10.88310 | 25320 ft | 384 kts | 249° |
| 2026-05-06 21:18 | 41.12445 | 10.85021 | 25625 ft | 385 kts | 249° |
| 2026-05-06 21:18 | 41.11507 | 10.81683 | 25935 ft | 387 kts | 249° |
| 2026-05-06 21:19 | 41.10565 | 10.78332 | 26231 ft | 388 kts | 249° |
| 2026-05-06 21:19 | 41.09620 | 10.74977 | 26535 ft | 389 kts | 248° |
| 2026-05-06 21:19 | 41.08670 | 10.71610 | 26824 ft | 391 kts | 248° |
| 2026-05-06 21:19 | 41.07717 | 10.68235 | 27110 ft | 392 kts | 248° |
| 2026-05-06 21:20 | 41.06758 | 10.64844 | 27364 ft | 393 kts | 248° |
| 2026-05-06 21:20 | 41.05805 | 10.61481 | 27587 ft | 396 kts | 248° |
| 2026-05-06 21:20 | 41.04833 | 10.58055 | 27888 ft | 397 kts | 248° |
| 2026-05-06 21:20 | 41.03861 | 10.54631 | 28267 ft | 396 kts | 248° |
| 2026-05-06 21:21 | 41.02889 | 10.51210 | 28504 ft | 398 kts | 248° |
| 2026-05-06 21:21 | 41.01915 | 10.47789 | 28751 ft | 400 kts | 248° |
| 2026-05-06 21:21 | 41.00923 | 10.44309 | 28934 ft | 402 kts | 248° |
| 2026-05-06 21:22 | 40.98959 | 10.37434 | 28977 ft | 401 kts | 248° |
| 2026-05-06 21:22 | 40.94919 | 10.23349 | 28976 ft | 401 kts | 248° |